sensor_id;sensor_type;location;lat;lon;timestamp;temperature;humidity
6270;DHT22;3168;51.684;6.954;2022-12-07T00:00:21;4.40;99.90
6270;DHT22;3168;51.684;6.954;2022-12-07T00:02:46;4.40;99.90
6270;DHT22;3168;51.684;6.954;2022-12-07T00:05:12;4.40;99.90
6270;DHT22;3168;51.684;6.954;2022-12-07T00:07:38;4.40;99.90
6270;DHT22;3168;51.684;6.954;2022-12-07T00:10:05;4.40;99.90
6270;DHT22;3168;51.684;6.954;2022-12-07T00:12:31;4.40;99.90
6270;DHT22;3168;51.684;6.954;2022-12-07T00:14:57;4.40;99.90
6270;DHT22;3168;51.684;6.954;2022-12-07T00:17:23;4.40;99.90
6270;DHT22;3168;51.684;6.954;2022-12-07T00:19:49;4.40;99.90
6270;DHT22;3168;51.684;6.954;2022-12-07T00:22:14;4.40;99.90
6270;DHT22;3168;51.684;6.954;2022-12-07T00:24:40;4.50;99.90
6270;DHT22;3168;51.684;6.954;2022-12-07T00:27:06;4.50;99.90
6270;DHT22;3168;51.684;6.954;2022-12-07T00:29:32;4.50;99.90
6270;DHT22;3168;51.684;6.954;2022-12-07T00:31:57;4.60;99.90
6270;DHT22;3168;51.684;6.954;2022-12-07T00:34:23;4.50;99.90
6270;DHT22;3168;51.684;6.954;2022-12-07T00:36:49;4.50;99.90
6270;DHT22;3168;51.684;6.954;2022-12-07T00:39:15;4.60;99.90
6270;DHT22;3168;51.684;6.954;2022-12-07T00:41:41;4.60;99.90
6270;DHT22;3168;51.684;6.954;2022-12-07T00:44:06;4.60;99.90
6270;DHT22;3168;51.684;6.954;2022-12-07T00:46:32;4.60;99.90
6270;DHT22;3168;51.684;6.954;2022-12-07T00:48:58;4.60;99.90
6270;DHT22;3168;51.684;6.954;2022-12-07T00:51:24;4.60;99.90
6270;DHT22;3168;51.684;6.954;2022-12-07T00:53:50;4.60;99.90
6270;DHT22;3168;51.684;6.954;2022-12-07T00:56:17;4.60;99.90
6270;DHT22;3168;51.684;6.954;2022-12-07T00:58:41;4.60;99.90
6270;DHT22;3168;51.684;6.954;2022-12-07T01:01:07;4.60;99.90
6270;DHT22;3168;51.684;6.954;2022-12-07T01:03:33;4.60;99.90
6270;DHT22;3168;51.684;6.954;2022-12-07T01:05:59;4.50;99.90
6270;DHT22;3168;51.684;6.954;2022-12-07T01:08:25;4.60;99.90
6270;DHT22;3168;51.684;6.954;2022-12-07T01:10:57;4.60;99.90
6270;DHT22;3168;51.684;6.954;2022-12-07T01:13:16;4.60;99.90
6270;DHT22;3168;51.684;6.954;2022-12-07T01:15:42;4.60;99.90
6270;DHT22;3168;51.684;6.954;2022-12-07T01:18:08;4.60;99.90
6270;DHT22;3168;51.684;6.954;2022-12-07T01:20:33;4.60;99.90
6270;DHT22;3168;51.684;6.954;2022-12-07T01:22:59;4.60;99.90
6270;DHT22;3168;51.684;6.954;2022-12-07T01:25:26;4.60;99.90
6270;DHT22;3168;51.684;6.954;2022-12-07T01:27:51;4.60;99.90
6270;DHT22;3168;51.684;6.954;2022-12-07T01:30:17;4.60;99.90
6270;DHT22;3168;51.684;6.954;2022-12-07T01:32:43;4.60;99.90
6270;DHT22;3168;51.684;6.954;2022-12-07T01:35:09;4.60;99.90
6270;DHT22;3168;51.684;6.954;2022-12-07T01:37:36;4.60;99.90
6270;DHT22;3168;51.684;6.954;2022-12-07T01:40:02;4.60;99.90
6270;DHT22;3168;51.684;6.954;2022-12-07T01:42:28;4.50;99.90
6270;DHT22;3168;51.684;6.954;2022-12-07T01:47:32;4.60;99.90
6270;DHT22;3168;51.684;6.954;2022-12-07T01:49:57;4.50;99.90
6270;DHT22;3168;51.684;6.954;2022-12-07T01:52:25;4.50;99.90
6270;DHT22;3168;51.684;6.954;2022-12-07T01:54:51;4.50;99.90
6270;DHT22;3168;51.684;6.954;2022-12-07T01:57:16;4.40;99.90
6270;DHT22;3168;51.684;6.954;2022-12-07T01:59:42;4.40;99.90
6270;DHT22;3168;51.684;6.954;2022-12-07T02:02:10;4.30;99.90
6270;DHT22;3168;51.684;6.954;2022-12-07T02:04:33;4.30;99.90
6270;DHT22;3168;51.684;6.954;2022-12-07T02:06:59;4.30;99.90
6270;DHT22;3168;51.684;6.954;2022-12-07T02:09:25;4.20;99.90
6270;DHT22;3168;51.684;6.954;2022-12-07T02:11:51;4.20;99.90
6270;DHT22;3168;51.684;6.954;2022-12-07T02:14:16;4.10;99.90
6270;DHT22;3168;51.684;6.954;2022-12-07T02:17:11;4.00;99.90
6270;DHT22;3168;51.684;6.954;2022-12-07T02:19:42;4.00;99.90
6270;DHT22;3168;51.684;6.954;2022-12-07T02:24:51;3.90;99.90
6270;DHT22;3168;51.684;6.954;2022-12-07T02:27:27;3.90;99.90
6270;DHT22;3168;51.684;6.954;2022-12-07T02:29:56;3.80;99.90
6270;DHT22;3168;51.684;6.954;2022-12-07T02:32:24;3.80;99.90
6270;DHT22;3168;51.684;6.954;2022-12-07T02:34:52;3.70;99.90
6270;DHT22;3168;51.684;6.954;2022-12-07T02:39:59;3.60;99.90
6270;DHT22;3168;51.684;6.954;2022-12-07T02:42:26;3.50;99.90
6270;DHT22;3168;51.684;6.954;2022-12-07T02:44:50;3.50;99.90
6270;DHT22;3168;51.684;6.954;2022-12-07T02:47:16;3.60;99.90
6270;DHT22;3168;51.684;6.954;2022-12-07T02:49:42;3.50;99.90
6270;DHT22;3168;51.684;6.954;2022-12-07T02:52:07;3.50;99.90
6270;DHT22;3168;51.684;6.954;2022-12-07T02:54:33;3.50;99.90
6270;DHT22;3168;51.684;6.954;2022-12-07T02:57:10;3.40;99.90
6270;DHT22;3168;51.684;6.954;2022-12-07T02:59:50;3.40;99.90
6270;DHT22;3168;51.684;6.954;2022-12-07T03:02:24;3.40;99.90
6270;DHT22;3168;51.684;6.954;2022-12-07T03:04:56;3.30;99.90
6270;DHT22;3168;51.684;6.954;2022-12-07T03:07:25;3.30;99.90
6270;DHT22;3168;51.684;6.954;2022-12-07T03:09:53;3.30;99.90
6270;DHT22;3168;51.684;6.954;2022-12-07T03:12:21;3.30;99.90
6270;DHT22;3168;51.684;6.954;2022-12-07T03:14:46;3.20;99.90
6270;DHT22;3168;51.684;6.954;2022-12-07T03:17:14;3.20;99.90
6270;DHT22;3168;51.684;6.954;2022-12-07T03:19:38;3.20;99.90
6270;DHT22;3168;51.684;6.954;2022-12-07T03:22:07;3.20;99.90
6270;DHT22;3168;51.684;6.954;2022-12-07T03:24:33;3.10;99.90
6270;DHT22;3168;51.684;6.954;2022-12-07T03:27:05;3.10;99.90
6270;DHT22;3168;51.684;6.954;2022-12-07T03:29:34;3.10;99.90
6270;DHT22;3168;51.684;6.954;2022-12-07T03:32:01;3.10;99.90
6270;DHT22;3168;51.684;6.954;2022-12-07T03:34:28;3.10;99.90
6270;DHT22;3168;51.684;6.954;2022-12-07T03:36:53;3.00;99.90
6270;DHT22;3168;51.684;6.954;2022-12-07T03:39:23;3.10;99.90
6270;DHT22;3168;51.684;6.954;2022-12-07T03:41:48;3.10;99.90
6270;DHT22;3168;51.684;6.954;2022-12-07T03:44:14;3.10;99.90
6270;DHT22;3168;51.684;6.954;2022-12-07T03:47:07;3.10;99.90
6270;DHT22;3168;51.684;6.954;2022-12-07T03:49:39;3.10;99.90
6270;DHT22;3168;51.684;6.954;2022-12-07T03:52:08;3.10;99.90
6270;DHT22;3168;51.684;6.954;2022-12-07T03:54:33;3.10;99.90
6270;DHT22;3168;51.684;6.954;2022-12-07T03:56:57;3.10;99.90
6270;DHT22;3168;51.684;6.954;2022-12-07T03:59:23;3.10;99.90
6270;DHT22;3168;51.684;6.954;2022-12-07T04:01:51;3.10;99.90
6270;DHT22;3168;51.684;6.954;2022-12-07T04:04:16;3.10;99.90
6270;DHT22;3168;51.684;6.954;2022-12-07T04:06:42;3.10;99.90
6270;DHT22;3168;51.684;6.954;2022-12-07T04:09:08;3.10;99.90
6270;DHT22;3168;51.684;6.954;2022-12-07T04:11:33;3.10;99.90
6270;DHT22;3168;51.684;6.954;2022-12-07T04:13:59;3.10;99.90
6270;DHT22;3168;51.684;6.954;2022-12-07T04:16:32;3.00;99.90
6270;DHT22;3168;51.684;6.954;2022-12-07T04:18:58;3.10;99.90
6270;DHT22;3168;51.684;6.954;2022-12-07T04:21:24;3.00;99.90
6270;DHT22;3168;51.684;6.954;2022-12-07T04:23:50;3.10;99.90
6270;DHT22;3168;51.684;6.954;2022-12-07T04:26:16;3.10;99.90
6270;DHT22;3168;51.684;6.954;2022-12-07T04:28:42;3.10;99.90
6270;DHT22;3168;51.684;6.954;2022-12-07T04:31:07;3.10;99.90
6270;DHT22;3168;51.684;6.954;2022-12-07T04:33:35;3.10;99.90
6270;DHT22;3168;51.684;6.954;2022-12-07T04:35:59;3.10;99.90
6270;DHT22;3168;51.684;6.954;2022-12-07T04:38:25;3.10;99.90
6270;DHT22;3168;51.684;6.954;2022-12-07T04:40:51;3.10;99.90
6270;DHT22;3168;51.684;6.954;2022-12-07T04:43:16;3.10;99.90
6270;DHT22;3168;51.684;6.954;2022-12-07T04:45:47;3.10;99.90
6270;DHT22;3168;51.684;6.954;2022-12-07T04:48:13;3.10;99.90
6270;DHT22;3168;51.684;6.954;2022-12-07T04:50:39;3.10;99.90
6270;DHT22;3168;51.684;6.954;2022-12-07T04:53:04;3.10;99.90
6270;DHT22;3168;51.684;6.954;2022-12-07T04:55:30;3.10;99.90
6270;DHT22;3168;51.684;6.954;2022-12-07T04:57:56;3.10;99.90
6270;DHT22;3168;51.684;6.954;2022-12-07T05:00:22;3.10;99.90
6270;DHT22;3168;51.684;6.954;2022-12-07T05:02:48;3.10;99.90
6270;DHT22;3168;51.684;6.954;2022-12-07T05:05:14;3.10;99.90
6270;DHT22;3168;51.684;6.954;2022-12-07T05:07:39;3.10;99.90
6270;DHT22;3168;51.684;6.954;2022-12-07T05:10:06;3.10;99.90
6270;DHT22;3168;51.684;6.954;2022-12-07T05:12:32;3.10;99.90
6270;DHT22;3168;51.684;6.954;2022-12-07T05:14:58;3.00;99.90
6270;DHT22;3168;51.684;6.954;2022-12-07T05:17:23;3.00;99.90
6270;DHT22;3168;51.684;6.954;2022-12-07T05:19:50;3.00;99.90
6270;DHT22;3168;51.684;6.954;2022-12-07T05:22:15;3.00;99.90
6270;DHT22;3168;51.684;6.954;2022-12-07T05:24:41;3.00;99.90
6270;DHT22;3168;51.684;6.954;2022-12-07T05:27:07;3.00;99.90
6270;DHT22;3168;51.684;6.954;2022-12-07T05:29:33;3.00;99.90
6270;DHT22;3168;51.684;6.954;2022-12-07T05:31:59;3.00;99.90
6270;DHT22;3168;51.684;6.954;2022-12-07T05:34:24;3.00;99.90
6270;DHT22;3168;51.684;6.954;2022-12-07T05:36:51;3.00;99.90
6270;DHT22;3168;51.684;6.954;2022-12-07T05:39:17;3.00;99.90
6270;DHT22;3168;51.684;6.954;2022-12-07T05:41:43;3.00;99.90
6270;DHT22;3168;51.684;6.954;2022-12-07T05:44:15;3.00;99.90
6270;DHT22;3168;51.684;6.954;2022-12-07T05:46:41;3.00;99.90
6270;DHT22;3168;51.684;6.954;2022-12-07T05:49:07;3.00;99.90
6270;DHT22;3168;51.684;6.954;2022-12-07T05:51:33;3.00;99.90
6270;DHT22;3168;51.684;6.954;2022-12-07T05:53:58;3.00;99.90
6270;DHT22;3168;51.684;6.954;2022-12-07T05:56:24;3.00;99.90
6270;DHT22;3168;51.684;6.954;2022-12-07T05:58:50;3.00;99.90
6270;DHT22;3168;51.684;6.954;2022-12-07T06:01:22;2.90;99.90
6270;DHT22;3168;51.684;6.954;2022-12-07T06:03:48;2.90;99.90
6270;DHT22;3168;51.684;6.954;2022-12-07T06:06:13;2.90;99.90
6270;DHT22;3168;51.684;6.954;2022-12-07T06:08:39;3.00;99.90
6270;DHT22;3168;51.684;6.954;2022-12-07T06:11:05;3.00;99.90
6270;DHT22;3168;51.684;6.954;2022-12-07T06:13:37;3.00;99.90
6270;DHT22;3168;51.684;6.954;2022-12-07T06:16:04;2.90;99.90
6270;DHT22;3168;51.684;6.954;2022-12-07T06:18:30;2.90;99.90
6270;DHT22;3168;51.684;6.954;2022-12-07T06:20:55;2.90;99.90
6270;DHT22;3168;51.684;6.954;2022-12-07T06:23:21;2.90;99.90
6270;DHT22;3168;51.684;6.954;2022-12-07T06:25:47;2.90;99.90
6270;DHT22;3168;51.684;6.954;2022-12-07T06:28:13;2.80;99.90
6270;DHT22;3168;51.684;6.954;2022-12-07T06:30:38;2.80;99.90
6270;DHT22;3168;51.684;6.954;2022-12-07T06:33:04;2.70;99.90
6270;DHT22;3168;51.684;6.954;2022-12-07T06:35:32;2.70;99.90
6270;DHT22;3168;51.684;6.954;2022-12-07T06:37:56;2.70;99.90
6270;DHT22;3168;51.684;6.954;2022-12-07T06:40:22;2.60;99.90
6270;DHT22;3168;51.684;6.954;2022-12-07T06:42:47;2.60;99.90
6270;DHT22;3168;51.684;6.954;2022-12-07T06:45:13;2.60;99.90
6270;DHT22;3168;51.684;6.954;2022-12-07T06:47:39;2.60;99.90
6270;DHT22;3168;51.684;6.954;2022-12-07T06:50:07;2.50;99.90
6270;DHT22;3168;51.684;6.954;2022-12-07T06:52:33;2.50;99.90
6270;DHT22;3168;51.684;6.954;2022-12-07T06:54:58;2.50;99.90
6270;DHT22;3168;51.684;6.954;2022-12-07T06:57:24;2.50;99.90
6270;DHT22;3168;51.684;6.954;2022-12-07T06:59:50;2.50;99.90
6270;DHT22;3168;51.684;6.954;2022-12-07T07:02:16;2.50;99.90
6270;DHT22;3168;51.684;6.954;2022-12-07T07:04:41;2.60;99.90
6270;DHT22;3168;51.684;6.954;2022-12-07T07:07:07;2.50;99.90
6270;DHT22;3168;51.684;6.954;2022-12-07T07:09:33;2.50;99.90
6270;DHT22;3168;51.684;6.954;2022-12-07T07:11:59;2.50;99.90
6270;DHT22;3168;51.684;6.954;2022-12-07T07:14:25;2.50;99.90
6270;DHT22;3168;51.684;6.954;2022-12-07T07:16:51;2.50;99.90
6270;DHT22;3168;51.684;6.954;2022-12-07T07:19:17;2.50;99.90
6270;DHT22;3168;51.684;6.954;2022-12-07T07:21:43;2.50;99.90
6270;DHT22;3168;51.684;6.954;2022-12-07T07:24:09;2.50;99.90
6270;DHT22;3168;51.684;6.954;2022-12-07T07:26:35;2.50;99.90
6270;DHT22;3168;51.684;6.954;2022-12-07T07:29:01;2.50;99.90
6270;DHT22;3168;51.684;6.954;2022-12-07T07:31:27;2.50;99.90
6270;DHT22;3168;51.684;6.954;2022-12-07T07:33:52;2.50;99.90
6270;DHT22;3168;51.684;6.954;2022-12-07T07:36:18;2.50;99.90
6270;DHT22;3168;51.684;6.954;2022-12-07T07:38:44;2.50;99.90
6270;DHT22;3168;51.684;6.954;2022-12-07T07:41:10;2.50;99.90
6270;DHT22;3168;51.684;6.954;2022-12-07T07:43:35;2.60;99.90
6270;DHT22;3168;51.684;6.954;2022-12-07T07:46:01;2.60;99.90
6270;DHT22;3168;51.684;6.954;2022-12-07T07:48:34;2.60;99.90
6270;DHT22;3168;51.684;6.954;2022-12-07T07:51:00;2.60;99.90
6270;DHT22;3168;51.684;6.954;2022-12-07T07:53:25;2.50;99.90
6270;DHT22;3168;51.684;6.954;2022-12-07T07:55:52;2.60;99.90
6270;DHT22;3168;51.684;6.954;2022-12-07T07:58:17;2.60;99.90
6270;DHT22;3168;51.684;6.954;2022-12-07T08:00:43;2.50;99.90
6270;DHT22;3168;51.684;6.954;2022-12-07T08:03:09;2.60;99.90
6270;DHT22;3168;51.684;6.954;2022-12-07T08:05:36;2.60;99.90
6270;DHT22;3168;51.684;6.954;2022-12-07T08:08:00;2.60;99.90
6270;DHT22;3168;51.684;6.954;2022-12-07T08:10:26;2.50;99.90
6270;DHT22;3168;51.684;6.954;2022-12-07T08:12:52;2.70;99.90
6270;DHT22;3168;51.684;6.954;2022-12-07T08:15:24;2.70;99.90
6270;DHT22;3168;51.684;6.954;2022-12-07T08:17:49;2.70;99.90
6270;DHT22;3168;51.684;6.954;2022-12-07T08:20:15;2.70;99.90
6270;DHT22;3168;51.684;6.954;2022-12-07T08:22:42;2.80;99.90
6270;DHT22;3168;51.684;6.954;2022-12-07T08:25:08;2.80;99.90
6270;DHT22;3168;51.684;6.954;2022-12-07T08:27:33;2.80;99.90
6270;DHT22;3168;51.684;6.954;2022-12-07T08:29:59;2.80;99.90
6270;DHT22;3168;51.684;6.954;2022-12-07T08:32:25;2.90;99.90
6270;DHT22;3168;51.684;6.954;2022-12-07T08:34:51;2.90;99.90
6270;DHT22;3168;51.684;6.954;2022-12-07T08:37:17;2.90;99.90
6270;DHT22;3168;51.684;6.954;2022-12-07T08:39:43;2.90;99.90
6270;DHT22;3168;51.684;6.954;2022-12-07T08:42:09;2.90;99.90
6270;DHT22;3168;51.684;6.954;2022-12-07T08:44:35;2.90;99.90
6270;DHT22;3168;51.684;6.954;2022-12-07T08:47:02;3.00;99.90
6270;DHT22;3168;51.684;6.954;2022-12-07T08:49:32;3.00;99.90
6270;DHT22;3168;51.684;6.954;2022-12-07T08:51:57;3.00;99.90
6270;DHT22;3168;51.684;6.954;2022-12-07T08:54:22;3.10;99.90
6270;DHT22;3168;51.684;6.954;2022-12-07T08:56:48;3.10;99.90
6270;DHT22;3168;51.684;6.954;2022-12-07T08:59:15;3.20;99.90
6270;DHT22;3168;51.684;6.954;2022-12-07T09:01:41;3.10;99.90
6270;DHT22;3168;51.684;6.954;2022-12-07T09:04:06;3.30;99.90
6270;DHT22;3168;51.684;6.954;2022-12-07T09:06:32;3.20;99.90
6270;DHT22;3168;51.684;6.954;2022-12-07T09:08:59;3.30;99.90
6270;DHT22;3168;51.684;6.954;2022-12-07T09:11:24;3.20;99.90
6270;DHT22;3168;51.684;6.954;2022-12-07T09:13:50;3.30;99.90
6270;DHT22;3168;51.684;6.954;2022-12-07T09:16:16;3.40;99.90
6270;DHT22;3168;51.684;6.954;2022-12-07T09:18:42;3.40;99.90
6270;DHT22;3168;51.684;6.954;2022-12-07T09:21:08;3.50;99.90
6270;DHT22;3168;51.684;6.954;2022-12-07T09:23:34;3.50;99.90
6270;DHT22;3168;51.684;6.954;2022-12-07T09:26:00;3.60;99.90
6270;DHT22;3168;51.684;6.954;2022-12-07T09:28:25;3.60;99.90
6270;DHT22;3168;51.684;6.954;2022-12-07T09:30:51;3.70;99.90
6270;DHT22;3168;51.684;6.954;2022-12-07T09:33:17;3.70;99.90
6270;DHT22;3168;51.684;6.954;2022-12-07T09:35:44;3.80;99.90
6270;DHT22;3168;51.684;6.954;2022-12-07T09:38:10;3.70;99.90
6270;DHT22;3168;51.684;6.954;2022-12-07T09:40:36;3.60;99.90
6270;DHT22;3168;51.684;6.954;2022-12-07T09:43:02;3.60;99.90
6270;DHT22;3168;51.684;6.954;2022-12-07T09:45:31;3.60;99.90
6270;DHT22;3168;51.684;6.954;2022-12-07T09:47:55;3.70;99.90
6270;DHT22;3168;51.684;6.954;2022-12-07T09:50:23;3.80;99.90
6270;DHT22;3168;51.684;6.954;2022-12-07T09:52:47;3.90;99.90
6270;DHT22;3168;51.684;6.954;2022-12-07T09:55:14;4.00;99.90
6270;DHT22;3168;51.684;6.954;2022-12-07T09:57:38;4.30;99.90
6270;DHT22;3168;51.684;6.954;2022-12-07T10:00:10;4.50;99.90
6270;DHT22;3168;51.684;6.954;2022-12-07T10:02:38;4.60;99.90
6270;DHT22;3168;51.684;6.954;2022-12-07T10:05:05;4.50;99.90
6270;DHT22;3168;51.684;6.954;2022-12-07T10:07:30;4.60;99.90
6270;DHT22;3168;51.684;6.954;2022-12-07T10:09:56;4.60;99.90
6270;DHT22;3168;51.684;6.954;2022-12-07T10:12:22;4.50;99.90
6270;DHT22;3168;51.684;6.954;2022-12-07T10:14:55;4.60;99.90
6270;DHT22;3168;51.684;6.954;2022-12-07T10:17:41;4.60;99.90
6270;DHT22;3168;51.684;6.954;2022-12-07T10:20:10;4.60;99.90
6270;DHT22;3168;51.684;6.954;2022-12-07T10:22:33;4.70;99.90
6270;DHT22;3168;51.684;6.954;2022-12-07T10:25:07;4.80;99.90
6270;DHT22;3168;51.684;6.954;2022-12-07T10:27:30;4.80;99.30
6270;DHT22;3168;51.684;6.954;2022-12-07T10:29:52;4.90;99.50
6270;DHT22;3168;51.684;6.954;2022-12-07T10:32:31;4.90;96.60
6270;DHT22;3168;51.684;6.954;2022-12-07T10:35:34;4.90;97.60
6270;DHT22;3168;51.684;6.954;2022-12-07T10:37:42;4.90;97.50
6270;DHT22;3168;51.684;6.954;2022-12-07T10:40:35;5.00;97.60
6270;DHT22;3168;51.684;6.954;2022-12-07T10:43:04;5.00;97.10
6270;DHT22;3168;51.684;6.954;2022-12-07T10:45:28;5.00;96.60
6270;DHT22;3168;51.684;6.954;2022-12-07T10:48:18;5.10;97.10
6270;DHT22;3168;51.684;6.954;2022-12-07T10:50:49;5.10;96.70
6270;DHT22;3168;51.684;6.954;2022-12-07T10:53:28;5.10;96.30
6270;DHT22;3168;51.684;6.954;2022-12-07T10:56:02;5.10;95.70
6270;DHT22;3168;51.684;6.954;2022-12-07T10:58:43;5.10;95.60
6270;DHT22;3168;51.684;6.954;2022-12-07T11:01:10;5.00;95.00
6270;DHT22;3168;51.684;6.954;2022-12-07T11:03:46;5.00;96.40
6270;DHT22;3168;51.684;6.954;2022-12-07T11:06:18;5.10;95.80
6270;DHT22;3168;51.684;6.954;2022-12-07T11:08:54;5.10;95.80
6270;DHT22;3168;51.684;6.954;2022-12-07T11:11:30;5.20;95.60
6270;DHT22;3168;51.684;6.954;2022-12-07T11:14:00;5.20;94.80
6270;DHT22;3168;51.684;6.954;2022-12-07T11:16:48;5.20;93.40
6270;DHT22;3168;51.684;6.954;2022-12-07T11:19:18;5.20;93.30
6270;DHT22;3168;51.684;6.954;2022-12-07T11:21:58;5.30;93.10
6270;DHT22;3168;51.684;6.954;2022-12-07T11:24:27;5.30;92.30
6270;DHT22;3168;51.684;6.954;2022-12-07T11:27:01;5.30;91.20
6270;DHT22;3168;51.684;6.954;2022-12-07T11:32:13;5.40;90.20
6270;DHT22;3168;51.684;6.954;2022-12-07T11:37:09;5.50;88.80
6270;DHT22;3168;51.684;6.954;2022-12-07T11:39:35;5.50;88.50
6270;DHT22;3168;51.684;6.954;2022-12-07T11:42:04;5.50;88.50
6270;DHT22;3168;51.684;6.954;2022-12-07T11:44:33;5.50;88.70
6270;DHT22;3168;51.684;6.954;2022-12-07T11:49:44;5.60;85.10
6270;DHT22;3168;51.684;6.954;2022-12-07T11:52:14;5.60;84.40
6270;DHT22;3168;51.684;6.954;2022-12-07T11:54:36;5.70;84.00
6270;DHT22;3168;51.684;6.954;2022-12-07T11:57:03;5.80;84.80
6270;DHT22;3168;51.684;6.954;2022-12-07T11:59:33;5.80;83.10
6270;DHT22;3168;51.684;6.954;2022-12-07T12:01:59;5.80;80.80
6270;DHT22;3168;51.684;6.954;2022-12-07T12:04:27;5.80;80.40
6270;DHT22;3168;51.684;6.954;2022-12-07T12:06:49;5.90;79.60
6270;DHT22;3168;51.684;6.954;2022-12-07T12:09:18;5.90;77.50
6270;DHT22;3168;51.684;6.954;2022-12-07T12:12:04;6.00;78.90
6270;DHT22;3168;51.684;6.954;2022-12-07T12:14:50;6.10;74.80
6270;DHT22;3168;51.684;6.954;2022-12-07T12:17:34;6.30;71.40
6270;DHT22;3168;51.684;6.954;2022-12-07T12:20:14;6.30;71.00
6270;DHT22;3168;51.684;6.954;2022-12-07T12:22:37;6.40;68.30
6270;DHT22;3168;51.684;6.954;2022-12-07T12:25:02;6.50;67.80
6270;DHT22;3168;51.684;6.954;2022-12-07T12:27:28;6.50;64.10
6270;DHT22;3168;51.684;6.954;2022-12-07T12:29:54;6.60;65.40
6270;DHT22;3168;51.684;6.954;2022-12-07T12:32:20;6.50;63.70
6270;DHT22;3168;51.684;6.954;2022-12-07T12:35:19;6.40;59.00
6270;DHT22;3168;51.684;6.954;2022-12-07T12:37:42;6.20;58.90
6270;DHT22;3168;51.684;6.954;2022-12-07T12:40:37;6.20;59.00
6270;DHT22;3168;51.684;6.954;2022-12-07T12:42:48;5.90;62.90
6270;DHT22;3168;51.684;6.954;2022-12-07T12:45:22;5.90;62.90
6270;DHT22;3168;51.684;6.954;2022-12-07T12:47:56;5.90;67.20
6270;DHT22;3168;51.684;6.954;2022-12-07T12:50:23;5.90;67.30
6270;DHT22;3168;51.684;6.954;2022-12-07T12:53:02;5.80;69.80
6270;DHT22;3168;51.684;6.954;2022-12-07T12:55:43;5.80;69.50
6270;DHT22;3168;51.684;6.954;2022-12-07T12:58:38;5.80;71.50
6270;DHT22;3168;51.684;6.954;2022-12-07T13:00:46;5.90;71.80
6270;DHT22;3168;51.684;6.954;2022-12-07T13:03:21;5.80;71.80
6270;DHT22;3168;51.684;6.954;2022-12-07T13:05:45;5.80;72.40
6270;DHT22;3168;51.684;6.954;2022-12-07T13:08:18;5.80;72.00
6270;DHT22;3168;51.684;6.954;2022-12-07T13:10:44;5.80;72.70
6270;DHT22;3168;51.684;6.954;2022-12-07T13:13:28;5.80;74.00
6270;DHT22;3168;51.684;6.954;2022-12-07T13:15:51;5.80;75.60
6270;DHT22;3168;51.684;6.954;2022-12-07T13:21:41;5.80;73.80
6270;DHT22;3168;51.684;6.954;2022-12-07T13:24:07;5.90;75.20
6270;DHT22;3168;51.684;6.954;2022-12-07T13:26:36;5.80;75.70
6270;DHT22;3168;51.684;6.954;2022-12-07T13:29:11;5.70;73.10
6270;DHT22;3168;51.684;6.954;2022-12-07T13:31:42;5.70;73.30
6270;DHT22;3168;51.684;6.954;2022-12-07T13:36:46;5.70;76.00
6270;DHT22;3168;51.684;6.954;2022-12-07T13:39:23;5.70;73.80
6270;DHT22;3168;51.684;6.954;2022-12-07T13:41:49;5.70;72.90
6270;DHT22;3168;51.684;6.954;2022-12-07T13:44:15;5.80;72.90
6270;DHT22;3168;51.684;6.954;2022-12-07T13:47:00;5.60;74.90
6270;DHT22;3168;51.684;6.954;2022-12-07T13:49:28;5.80;72.90
6270;DHT22;3168;51.684;6.954;2022-12-07T13:51:53;5.90;71.80
6270;DHT22;3168;51.684;6.954;2022-12-07T13:54:19;5.80;71.30
6270;DHT22;3168;51.684;6.954;2022-12-07T13:56:47;5.80;71.50
6270;DHT22;3168;51.684;6.954;2022-12-07T13:59:14;5.80;72.30
6270;DHT22;3168;51.684;6.954;2022-12-07T14:01:39;5.90;72.10
6270;DHT22;3168;51.684;6.954;2022-12-07T14:04:30;5.80;69.30
6270;DHT22;3168;51.684;6.954;2022-12-07T14:06:49;5.90;71.80
6270;DHT22;3168;51.684;6.954;2022-12-07T14:09:17;5.90;67.40
6270;DHT22;3168;51.684;6.954;2022-12-07T14:11:40;5.90;68.60
6270;DHT22;3168;51.684;6.954;2022-12-07T14:14:11;5.90;70.30
6270;DHT22;3168;51.684;6.954;2022-12-07T14:16:33;5.90;69.80
6270;DHT22;3168;51.684;6.954;2022-12-07T14:18:59;5.90;71.30
6270;DHT22;3168;51.684;6.954;2022-12-07T14:21:25;6.00;68.60
6270;DHT22;3168;51.684;6.954;2022-12-07T14:24:08;6.00;66.50
6270;DHT22;3168;51.684;6.954;2022-12-07T14:26:31;6.00;68.30
6270;DHT22;3168;51.684;6.954;2022-12-07T14:29:18;6.00;68.20
6270;DHT22;3168;51.684;6.954;2022-12-07T14:31:23;6.00;67.60
6270;DHT22;3168;51.684;6.954;2022-12-07T14:33:49;5.80;70.20
6270;DHT22;3168;51.684;6.954;2022-12-07T14:36:15;5.80;70.00
6270;DHT22;3168;51.684;6.954;2022-12-07T14:38:41;5.70;69.70
6270;DHT22;3168;51.684;6.954;2022-12-07T14:41:10;5.60;71.50
6270;DHT22;3168;51.684;6.954;2022-12-07T14:43:39;5.50;73.70
6270;DHT22;3168;51.684;6.954;2022-12-07T14:46:04;5.40;75.80
6270;DHT22;3168;51.684;6.954;2022-12-07T14:48:30;5.30;76.60
6270;DHT22;3168;51.684;6.954;2022-12-07T14:50:56;5.30;79.20
6270;DHT22;3168;51.684;6.954;2022-12-07T14:53:23;5.20;80.00
6270;DHT22;3168;51.684;6.954;2022-12-07T14:55:48;5.20;81.80
6270;DHT22;3168;51.684;6.954;2022-12-07T14:58:14;5.20;84.00
6270;DHT22;3168;51.684;6.954;2022-12-07T15:00:39;5.20;84.50
6270;DHT22;3168;51.684;6.954;2022-12-07T15:03:05;5.20;85.00
6270;DHT22;3168;51.684;6.954;2022-12-07T15:05:31;5.20;85.00
6270;DHT22;3168;51.684;6.954;2022-12-07T15:07:57;5.20;86.90
6270;DHT22;3168;51.684;6.954;2022-12-07T15:10:24;5.10;88.30
6270;DHT22;3168;51.684;6.954;2022-12-07T15:12:48;5.10;88.40
6270;DHT22;3168;51.684;6.954;2022-12-07T15:15:14;5.10;88.40
6270;DHT22;3168;51.684;6.954;2022-12-07T15:17:40;5.00;89.80
6270;DHT22;3168;51.684;6.954;2022-12-07T15:20:08;4.90;90.90
6270;DHT22;3168;51.684;6.954;2022-12-07T15:22:32;5.00;91.10
6270;DHT22;3168;51.684;6.954;2022-12-07T15:24:58;4.90;91.10
6270;DHT22;3168;51.684;6.954;2022-12-07T15:27:24;4.90;91.90
6270;DHT22;3168;51.684;6.954;2022-12-07T15:29:49;4.90;92.30
6270;DHT22;3168;51.684;6.954;2022-12-07T15:32:15;4.90;92.80
6270;DHT22;3168;51.684;6.954;2022-12-07T15:34:41;4.90;92.80
6270;DHT22;3168;51.684;6.954;2022-12-07T15:37:07;4.90;93.00
6270;DHT22;3168;51.684;6.954;2022-12-07T15:39:33;4.90;92.90
6270;DHT22;3168;51.684;6.954;2022-12-07T15:41:58;4.90;93.00
6270;DHT22;3168;51.684;6.954;2022-12-07T15:44:24;4.90;93.10
6270;DHT22;3168;51.684;6.954;2022-12-07T15:46:56;4.90;93.50
6270;DHT22;3168;51.684;6.954;2022-12-07T15:49:22;4.80;93.00
6270;DHT22;3168;51.684;6.954;2022-12-07T15:51:48;4.80;93.70
6270;DHT22;3168;51.684;6.954;2022-12-07T15:54:16;4.80;94.00
6270;DHT22;3168;51.684;6.954;2022-12-07T15:56:40;4.80;94.70
6270;DHT22;3168;51.684;6.954;2022-12-07T15:59:06;4.80;94.80
6270;DHT22;3168;51.684;6.954;2022-12-07T16:01:32;4.80;95.60
6270;DHT22;3168;51.684;6.954;2022-12-07T16:03:58;4.80;95.50
6270;DHT22;3168;51.684;6.954;2022-12-07T16:06:24;4.80;96.20
6270;DHT22;3168;51.684;6.954;2022-12-07T16:08:50;4.80;95.80
6270;DHT22;3168;51.684;6.954;2022-12-07T16:11:15;4.80;96.30
6270;DHT22;3168;51.684;6.954;2022-12-07T16:13:41;4.80;96.50
6270;DHT22;3168;51.684;6.954;2022-12-07T16:16:09;4.80;96.20
6270;DHT22;3168;51.684;6.954;2022-12-07T16:18:33;4.80;96.40
6270;DHT22;3168;51.684;6.954;2022-12-07T16:20:59;4.80;96.50
6270;DHT22;3168;51.684;6.954;2022-12-07T16:23:25;4.80;96.60
6270;DHT22;3168;51.684;6.954;2022-12-07T16:25:50;4.80;96.70
6270;DHT22;3168;51.684;6.954;2022-12-07T16:28:16;4.80;97.20
6270;DHT22;3168;51.684;6.954;2022-12-07T16:30:42;4.80;97.60
6270;DHT22;3168;51.684;6.954;2022-12-07T16:33:08;4.80;98.20
6270;DHT22;3168;51.684;6.954;2022-12-07T16:35:34;4.80;98.30
6270;DHT22;3168;51.684;6.954;2022-12-07T16:38:00;4.80;98.70
6270;DHT22;3168;51.684;6.954;2022-12-07T16:40:25;4.70;99.50